sensor_id;sensor_type;location;lat;lon;timestamp;temperature;humidity
51589;DHT22;37671;53.258;6.460;2023-02-01T00:01:59;5.80;99.90
51589;DHT22;37671;53.258;6.460;2023-02-01T00:04:25;5.80;99.90
51589;DHT22;37671;53.258;6.460;2023-02-01T00:06:51;5.90;99.90
51589;DHT22;37671;53.258;6.460;2023-02-01T00:09:17;5.80;99.90
51589;DHT22;37671;53.258;6.460;2023-02-01T00:11:43;5.80;99.90
51589;DHT22;37671;53.258;6.460;2023-02-01T00:14:08;5.90;99.90
51589;DHT22;37671;53.258;6.460;2023-02-01T00:16:34;5.90;99.90
51589;DHT22;37671;53.258;6.460;2023-02-01T00:19:12;5.90;99.90
51589;DHT22;37671;53.258;6.460;2023-02-01T00:21:38;5.80;99.90
51589;DHT22;37671;53.258;6.460;2023-02-01T00:24:04;5.90;99.90
51589;DHT22;37671;53.258;6.460;2023-02-01T00:26:33;5.80;99.90
51589;DHT22;37671;53.258;6.460;2023-02-01T00:29:00;5.90;99.90
51589;DHT22;37671;53.258;6.460;2023-02-01T00:31:25;5.90;99.90
51589;DHT22;37671;53.258;6.460;2023-02-01T00:33:51;5.90;99.90
51589;DHT22;37671;53.258;6.460;2023-02-01T00:36:17;5.90;99.90
51589;DHT22;37671;53.258;6.460;2023-02-01T00:38:43;5.90;99.90
51589;DHT22;37671;53.258;6.460;2023-02-01T00:41:14;5.90;99.90
51589;DHT22;37671;53.258;6.460;2023-02-01T00:43:40;6.00;99.90
51589;DHT22;37671;53.258;6.460;2023-02-01T00:46:06;6.00;99.90
51589;DHT22;37671;53.258;6.460;2023-02-01T00:48:31;6.00;99.90
51589;DHT22;37671;53.258;6.460;2023-02-01T00:51:05;5.90;99.90
51589;DHT22;37671;53.258;6.460;2023-02-01T00:53:32;6.10;99.90
51589;DHT22;37671;53.258;6.460;2023-02-01T00:55:58;6.00;99.90
51589;DHT22;37671;53.258;6.460;2023-02-01T00:58:24;6.00;99.90
51589;DHT22;37671;53.258;6.460;2023-02-01T01:01:01;6.00;99.90
51589;DHT22;37671;53.258;6.460;2023-02-01T01:03:27;6.00;99.90
51589;DHT22;37671;53.258;6.460;2023-02-01T01:05:56;6.10;99.90
51589;DHT22;37671;53.258;6.460;2023-02-01T01:08:22;6.00;99.90
51589;DHT22;37671;53.258;6.460;2023-02-01T01:10:48;6.10;99.90
51589;DHT22;37671;53.258;6.460;2023-02-01T01:13:15;6.00;99.90
51589;DHT22;37671;53.258;6.460;2023-02-01T01:15:40;6.00;99.90
51589;DHT22;37671;53.258;6.460;2023-02-01T01:18:07;6.00;99.90
51589;DHT22;37671;53.258;6.460;2023-02-01T01:20:38;6.00;99.90
51589;DHT22;37671;53.258;6.460;2023-02-01T01:23:04;6.00;99.90
51589;DHT22;37671;53.258;6.460;2023-02-01T01:25:30;6.00;99.90
51589;DHT22;37671;53.258;6.460;2023-02-01T01:27:56;6.00;99.90
51589;DHT22;37671;53.258;6.460;2023-02-01T01:30:22;6.00;99.90
51589;DHT22;37671;53.258;6.460;2023-02-01T01:32:47;6.00;99.90
51589;DHT22;37671;53.258;6.460;2023-02-01T01:35:13;6.10;99.90
51589;DHT22;37671;53.258;6.460;2023-02-01T01:37:39;6.10;99.90
51589;DHT22;37671;53.258;6.460;2023-02-01T01:40:06;6.00;99.90
51589;DHT22;37671;53.258;6.460;2023-02-01T01:42:39;6.00;99.90
51589;DHT22;37671;53.258;6.460;2023-02-01T01:45:33;6.00;99.90
51589;DHT22;37671;53.258;6.460;2023-02-01T01:48:25;7.30;99.90
51589;DHT22;37671;53.258;6.460;2023-02-01T01:53:28;5.80;99.90
51589;DHT22;37671;53.258;6.460;2023-02-01T01:55:57;5.80;99.90
51589;DHT22;37671;53.258;6.460;2023-02-01T01:58:26;5.80;99.90
51589;DHT22;37671;53.258;6.460;2023-02-01T02:00:53;6.10;99.90
51589;DHT22;37671;53.258;6.460;2023-02-01T02:03:22;5.70;99.90
51589;DHT22;37671;53.258;6.460;2023-02-01T02:05:50;5.70;99.90
51589;DHT22;37671;53.258;6.460;2023-02-01T02:08:18;5.70;99.90
51589;DHT22;37671;53.258;6.460;2023-02-01T02:10:47;5.70;99.90
51589;DHT22;37671;53.258;6.460;2023-02-01T02:13:31;5.70;99.90
51589;DHT22;37671;53.258;6.460;2023-02-01T02:16:13;5.60;99.90
51589;DHT22;37671;53.258;6.460;2023-02-01T02:18:57;5.50;99.90
51589;DHT22;37671;53.258;6.460;2023-02-01T02:24:39;5.60;99.90
51589;DHT22;37671;53.258;6.460;2023-02-01T02:35:17;5.60;99.90
51589;DHT22;37671;53.258;6.460;2023-02-01T02:38:22;5.60;99.90
51589;DHT22;37671;53.258;6.460;2023-02-01T02:43:49;5.60;99.90
51589;DHT22;37671;53.258;6.460;2023-02-01T02:46:39;5.70;99.90
51589;DHT22;37671;53.258;6.460;2023-02-01T02:52:04;5.70;99.90
51589;DHT22;37671;53.258;6.460;2023-02-01T02:54:53;5.70;99.90
51589;DHT22;37671;53.258;6.460;2023-02-01T02:57:28;5.80;99.90
51589;DHT22;37671;53.258;6.460;2023-02-01T03:00:17;5.80;99.90
51589;DHT22;37671;53.258;6.460;2023-02-01T03:03:02;5.90;99.90
51589;DHT22;37671;53.258;6.460;2023-02-01T03:05:48;5.90;99.90
51589;DHT22;37671;53.258;6.460;2023-02-01T03:08:23;5.90;99.90
51589;DHT22;37671;53.258;6.460;2023-02-01T03:11:04;5.90;99.90
51589;DHT22;37671;53.258;6.460;2023-02-01T03:16:23;5.90;99.90
51589;DHT22;37671;53.258;6.460;2023-02-01T03:19:11;5.90;99.90
51589;DHT22;37671;53.258;6.460;2023-02-01T03:21:47;6.00;99.90
51589;DHT22;37671;53.258;6.460;2023-02-01T03:24:30;6.10;99.90
51589;DHT22;37671;53.258;6.460;2023-02-01T03:27:22;6.10;99.90
51589;DHT22;37671;53.258;6.460;2023-02-01T03:30:08;6.10;99.90
51589;DHT22;37671;53.258;6.460;2023-02-01T03:32:36;6.10;99.90
51589;DHT22;37671;53.258;6.460;2023-02-01T03:36:12;6.00;99.90
51589;DHT22;37671;53.258;6.460;2023-02-01T03:38:22;6.10;99.90
51589;DHT22;37671;53.258;6.460;2023-02-01T03:40:53;6.10;99.90
51589;DHT22;37671;53.258;6.460;2023-02-01T03:43:22;6.10;99.90
51589;DHT22;37671;53.258;6.460;2023-02-01T03:45:54;6.10;99.90
51589;DHT22;37671;53.258;6.460;2023-02-01T03:48:22;7.60;99.90
51589;DHT22;37671;53.258;6.460;2023-02-01T03:50:52;6.00;99.90
51589;DHT22;37671;53.258;6.460;2023-02-01T03:53:21;6.00;99.90
51589;DHT22;37671;53.258;6.460;2023-02-01T03:55:48;5.90;99.90
51589;DHT22;37671;53.258;6.460;2023-02-01T03:58:16;5.90;99.90
51589;DHT22;37671;53.258;6.460;2023-02-01T04:00:53;7.00;99.90
51589;DHT22;37671;53.258;6.460;2023-02-01T04:03:19;5.90;99.90
51589;DHT22;37671;53.258;6.460;2023-02-01T04:05:44;5.80;99.90
51589;DHT22;37671;53.258;6.460;2023-02-01T04:08:10;5.80;99.90
51589;DHT22;37671;53.258;6.460;2023-02-01T04:10:35;5.90;99.90
51589;DHT22;37671;53.258;6.460;2023-02-01T04:13:01;5.90;99.90
51589;DHT22;37671;53.258;6.460;2023-02-01T04:15:27;5.90;99.90
51589;DHT22;37671;53.258;6.460;2023-02-01T04:17:52;6.00;99.90
51589;DHT22;37671;53.258;6.460;2023-02-01T04:20:18;7.20;99.90
51589;DHT22;37671;53.258;6.460;2023-02-01T04:22:43;5.90;99.90
51589;DHT22;37671;53.258;6.460;2023-02-01T04:25:09;5.90;99.90
51589;DHT22;37671;53.258;6.460;2023-02-01T04:27:35;5.90;99.90
51589;DHT22;37671;53.258;6.460;2023-02-01T04:30:00;5.80;99.90
51589;DHT22;37671;53.258;6.460;2023-02-01T04:32:26;5.80;99.90
51589;DHT22;37671;53.258;6.460;2023-02-01T04:34:52;5.80;99.90
51589;DHT22;37671;53.258;6.460;2023-02-01T04:37:17;5.80;99.90
51589;DHT22;37671;53.258;6.460;2023-02-01T04:39:43;5.80;99.90
51589;DHT22;37671;53.258;6.460;2023-02-01T04:42:08;5.90;99.90
51589;DHT22;37671;53.258;6.460;2023-02-01T04:44:34;5.90;99.90
51589;DHT22;37671;53.258;6.460;2023-02-01T04:47:02;5.90;99.90
51589;DHT22;37671;53.258;6.460;2023-02-01T04:49:28;6.20;99.90
51589;DHT22;37671;53.258;6.460;2023-02-01T04:51:53;5.80;99.90
51589;DHT22;37671;53.258;6.460;2023-02-01T04:54:19;5.80;99.90
51589;DHT22;37671;53.258;6.460;2023-02-01T04:56:44;5.70;99.90
51589;DHT22;37671;53.258;6.460;2023-02-01T04:59:11;5.70;99.90
51589;DHT22;37671;53.258;6.460;2023-02-01T05:01:37;5.60;99.90
51589;DHT22;37671;53.258;6.460;2023-02-01T05:04:02;5.60;99.90
51589;DHT22;37671;53.258;6.460;2023-02-01T05:06:28;5.60;99.90
51589;DHT22;37671;53.258;6.460;2023-02-01T05:08:54;5.60;99.90
51589;DHT22;37671;53.258;6.460;2023-02-01T05:11:19;5.60;99.90
51589;DHT22;37671;53.258;6.460;2023-02-01T05:14:04;5.60;99.90
51589;DHT22;37671;53.258;6.460;2023-02-01T05:16:29;5.60;99.90
51589;DHT22;37671;53.258;6.460;2023-02-01T05:18:55;5.60;99.90
51589;DHT22;37671;53.258;6.460;2023-02-01T05:21:20;5.60;99.90
51589;DHT22;37671;53.258;6.460;2023-02-01T05:23:46;6.60;99.90
51589;DHT22;37671;53.258;6.460;2023-02-01T05:26:30;5.90;99.90
51589;DHT22;37671;53.258;6.460;2023-02-01T05:28:56;6.70;99.90
51589;DHT22;37671;53.258;6.460;2023-02-01T05:31:23;6.90;99.90
51589;DHT22;37671;53.258;6.460;2023-02-01T05:33:48;5.90;99.90
51589;DHT22;37671;53.258;6.460;2023-02-01T05:36:14;6.20;99.90
51589;DHT22;37671;53.258;6.460;2023-02-01T05:38:40;5.90;99.90
51589;DHT22;37671;53.258;6.460;2023-02-01T05:41:06;6.00;99.90
51589;DHT22;37671;53.258;6.460;2023-02-01T05:43:31;6.00;99.90
51589;DHT22;37671;53.258;6.460;2023-02-01T05:45:57;6.00;99.90
51589;DHT22;37671;53.258;6.460;2023-02-01T05:48:23;6.00;99.90
51589;DHT22;37671;53.258;6.460;2023-02-01T05:50:48;6.10;99.90
51589;DHT22;37671;53.258;6.460;2023-02-01T05:53:14;6.30;99.90
51589;DHT22;37671;53.258;6.460;2023-02-01T05:55:41;5.90;99.90
51589;DHT22;37671;53.258;6.460;2023-02-01T05:58:09;6.60;99.90
51589;DHT22;37671;53.258;6.460;2023-02-01T06:00:35;7.60;99.90
51589;DHT22;37671;53.258;6.460;2023-02-01T06:03:00;5.70;99.90
51589;DHT22;37671;53.258;6.460;2023-02-01T06:05:27;5.70;99.90
51589;DHT22;37671;53.258;6.460;2023-02-01T06:07:53;5.70;99.90
51589;DHT22;37671;53.258;6.460;2023-02-01T06:10:19;5.60;99.90
51589;DHT22;37671;53.258;6.460;2023-02-01T06:12:45;5.70;99.90
51589;DHT22;37671;53.258;6.460;2023-02-01T06:15:12;5.70;99.90
51589;DHT22;37671;53.258;6.460;2023-02-01T06:17:38;5.80;99.90
51589;DHT22;37671;53.258;6.460;2023-02-01T06:20:05;5.70;99.90
51589;DHT22;37671;53.258;6.460;2023-02-01T06:22:32;5.70;99.90
51589;DHT22;37671;53.258;6.460;2023-02-01T06:24:58;5.70;99.90
51589;DHT22;37671;53.258;6.460;2023-02-01T06:27:24;5.70;99.90
51589;DHT22;37671;53.258;6.460;2023-02-01T06:29:50;5.80;99.90
51589;DHT22;37671;53.258;6.460;2023-02-01T06:32:16;5.90;99.90
51589;DHT22;37671;53.258;6.460;2023-02-01T06:34:43;5.90;99.90
51589;DHT22;37671;53.258;6.460;2023-02-01T06:37:09;5.90;99.90
51589;DHT22;37671;53.258;6.460;2023-02-01T06:39:36;5.90;99.90
51589;DHT22;37671;53.258;6.460;2023-02-01T06:42:02;5.90;99.90
51589;DHT22;37671;53.258;6.460;2023-02-01T06:44:28;5.90;99.90
51589;DHT22;37671;53.258;6.460;2023-02-01T06:46:54;5.90;99.90
51589;DHT22;37671;53.258;6.460;2023-02-01T06:49:20;6.00;99.90
51589;DHT22;37671;53.258;6.460;2023-02-01T06:51:46;6.00;99.90
51589;DHT22;37671;53.258;6.460;2023-02-01T06:54:11;6.00;99.90
51589;DHT22;37671;53.258;6.460;2023-02-01T06:56:37;6.00;99.90
51589;DHT22;37671;53.258;6.460;2023-02-01T06:59:05;6.00;99.90
51589;DHT22;37671;53.258;6.460;2023-02-01T07:01:30;6.00;99.90
51589;DHT22;37671;53.258;6.460;2023-02-01T07:03:56;6.00;99.90
51589;DHT22;37671;53.258;6.460;2023-02-01T07:06:22;6.00;99.90
51589;DHT22;37671;53.258;6.460;2023-02-01T07:08:48;6.00;99.90
51589;DHT22;37671;53.258;6.460;2023-02-01T07:11:16;6.00;99.90
51589;DHT22;37671;53.258;6.460;2023-02-01T07:13:41;6.00;99.90
51589;DHT22;37671;53.258;6.460;2023-02-01T07:16:11;6.00;99.90
51589;DHT22;37671;53.258;6.460;2023-02-01T07:18:37;6.00;99.90
51589;DHT22;37671;53.258;6.460;2023-02-01T07:21:03;6.00;99.90
51589;DHT22;37671;53.258;6.460;2023-02-01T07:23:29;6.00;99.90
51589;DHT22;37671;53.258;6.460;2023-02-01T07:25:55;6.00;99.90
51589;DHT22;37671;53.258;6.460;2023-02-01T07:28:21;6.00;99.90
51589;DHT22;37671;53.258;6.460;2023-02-01T07:30:47;5.90;99.90
51589;DHT22;37671;53.258;6.460;2023-02-01T07:33:21;5.90;99.90
51589;DHT22;37671;53.258;6.460;2023-02-01T07:35:48;5.90;99.90
51589;DHT22;37671;53.258;6.460;2023-02-01T07:38:14;5.90;99.90
51589;DHT22;37671;53.258;6.460;2023-02-01T07:40:41;6.00;99.90
51589;DHT22;37671;53.258;6.460;2023-02-01T07:43:07;6.80;99.90
51589;DHT22;37671;53.258;6.460;2023-02-01T07:45:34;6.10;99.90
51589;DHT22;37671;53.258;6.460;2023-02-01T07:47:59;6.00;99.90
51589;DHT22;37671;53.258;6.460;2023-02-01T07:50:25;6.00;99.90
51589;DHT22;37671;53.258;6.460;2023-02-01T07:52:51;5.90;99.90
51589;DHT22;37671;53.258;6.460;2023-02-01T07:55:19;6.00;99.90
51589;DHT22;37671;53.258;6.460;2023-02-01T07:57:44;6.00;99.90
51589;DHT22;37671;53.258;6.460;2023-02-01T08:00:10;5.90;99.90
51589;DHT22;37671;53.258;6.460;2023-02-01T08:03:00;6.10;99.90
51589;DHT22;37671;53.258;6.460;2023-02-01T08:05:29;6.10;99.90
51589;DHT22;37671;53.258;6.460;2023-02-01T08:07:55;7.60;99.90
51589;DHT22;37671;53.258;6.460;2023-02-01T08:10:21;6.10;99.90
51589;DHT22;37671;53.258;6.460;2023-02-01T08:12:49;7.10;99.90
51589;DHT22;37671;53.258;6.460;2023-02-01T08:15:17;6.10;99.90
51589;DHT22;37671;53.258;6.460;2023-02-01T08:17:50;6.10;99.90
51589;DHT22;37671;53.258;6.460;2023-02-01T08:20:17;6.10;99.90
51589;DHT22;37671;53.258;6.460;2023-02-01T08:22:43;6.10;99.90
51589;DHT22;37671;53.258;6.460;2023-02-01T08:25:09;6.20;99.90
51589;DHT22;37671;53.258;6.460;2023-02-01T08:27:35;6.90;99.90
51589;DHT22;37671;53.258;6.460;2023-02-01T08:30:01;6.10;99.90
51589;DHT22;37671;53.258;6.460;2023-02-01T08:32:27;6.20;99.90
51589;DHT22;37671;53.258;6.460;2023-02-01T08:34:53;6.20;99.90
51589;DHT22;37671;53.258;6.460;2023-02-01T08:37:18;6.20;99.90
51589;DHT22;37671;53.258;6.460;2023-02-01T08:39:44;6.20;99.90
51589;DHT22;37671;53.258;6.460;2023-02-01T08:42:11;6.20;99.90
51589;DHT22;37671;53.258;6.460;2023-02-01T08:44:55;6.20;99.90
51589;DHT22;37671;53.258;6.460;2023-02-01T08:47:21;6.30;99.90
51589;DHT22;37671;53.258;6.460;2023-02-01T08:49:47;7.40;99.90
51589;DHT22;37671;53.258;6.460;2023-02-01T08:52:13;6.30;99.90
51589;DHT22;37671;53.258;6.460;2023-02-01T08:54:38;6.30;99.90
51589;DHT22;37671;53.258;6.460;2023-02-01T08:57:06;6.30;99.90
51589;DHT22;37671;53.258;6.460;2023-02-01T08:59:32;6.30;99.90
51589;DHT22;37671;53.258;6.460;2023-02-01T09:01:58;6.30;99.90
51589;DHT22;37671;53.258;6.460;2023-02-01T09:04:23;6.30;99.90
51589;DHT22;37671;53.258;6.460;2023-02-01T09:06:49;6.30;99.90
51589;DHT22;37671;53.258;6.460;2023-02-01T09:09:14;6.30;99.90
51589;DHT22;37671;53.258;6.460;2023-02-01T09:11:40;6.30;99.90
51589;DHT22;37671;53.258;6.460;2023-02-01T09:14:08;6.30;99.90
51589;DHT22;37671;53.258;6.460;2023-02-01T09:16:37;6.30;99.90
51589;DHT22;37671;53.258;6.460;2023-02-01T09:19:02;6.30;99.90
51589;DHT22;37671;53.258;6.460;2023-02-01T09:21:28;6.30;99.90
51589;DHT22;37671;53.258;6.460;2023-02-01T09:23:54;6.30;99.90
51589;DHT22;37671;53.258;6.460;2023-02-01T09:26:22;7.40;99.90
51589;DHT22;37671;53.258;6.460;2023-02-01T09:28:48;6.50;99.90
51589;DHT22;37671;53.258;6.460;2023-02-01T09:31:14;6.50;99.90
51589;DHT22;37671;53.258;6.460;2023-02-01T09:33:39;6.50;99.90
51589;DHT22;37671;53.258;6.460;2023-02-01T09:36:05;6.50;99.90
51589;DHT22;37671;53.258;6.460;2023-02-01T09:38:31;6.50;99.90
51589;DHT22;37671;53.258;6.460;2023-02-01T09:40:58;6.50;99.90
51589;DHT22;37671;53.258;6.460;2023-02-01T09:43:41;6.50;99.90
51589;DHT22;37671;53.258;6.460;2023-02-01T09:46:30;6.40;99.90
51589;DHT22;37671;53.258;6.460;2023-02-01T09:49:00;6.40;99.90
51589;DHT22;37671;53.258;6.460;2023-02-01T09:51:34;6.40;99.90
51589;DHT22;37671;53.258;6.460;2023-02-01T09:59:42;6.30;99.90
51589;DHT22;37671;53.258;6.460;2023-02-01T10:02:23;6.30;99.90
51589;DHT22;37671;53.258;6.460;2023-02-01T10:04:49;6.20;99.90
51589;DHT22;37671;53.258;6.460;2023-02-01T10:07:36;6.10;99.90
51589;DHT22;37671;53.258;6.460;2023-02-01T10:10:23;6.10;99.90
51589;DHT22;37671;53.258;6.460;2023-02-01T10:15:47;6.00;99.90
51589;DHT22;37671;53.258;6.460;2023-02-01T10:21:05;6.00;99.90
51589;DHT22;37671;53.258;6.460;2023-02-01T10:26:22;6.30;99.90
51589;DHT22;37671;53.258;6.460;2023-02-01T10:28:56;6.10;99.90
51589;DHT22;37671;53.258;6.460;2023-02-01T10:31:25;6.10;99.90
51589;DHT22;37671;53.258;6.460;2023-02-01T10:34:38;6.10;99.90
51589;DHT22;37671;53.258;6.460;2023-02-01T10:37:17;6.20;99.90
51589;DHT22;37671;53.258;6.460;2023-02-01T10:39:48;6.30;99.90
51589;DHT22;37671;53.258;6.460;2023-02-01T10:42:17;6.40;99.90
51589;DHT22;37671;53.258;6.460;2023-02-01T10:44:45;6.40;99.90
51589;DHT22;37671;53.258;6.460;2023-02-01T10:47:13;6.50;99.90
51589;DHT22;37671;53.258;6.460;2023-02-01T10:52:54;6.70;99.90
51589;DHT22;37671;53.258;6.460;2023-02-01T10:55:34;6.80;99.90
51589;DHT22;37671;53.258;6.460;2023-02-01T10:58:04;6.90;99.90
51589;DHT22;37671;53.258;6.460;2023-02-01T11:00:43;7.00;99.90
51589;DHT22;37671;53.258;6.460;2023-02-01T11:05:55;6.90;99.90
51589;DHT22;37671;53.258;6.460;2023-02-01T11:08:21;6.80;99.90
51589;DHT22;37671;53.258;6.460;2023-02-01T11:10:46;6.50;99.90
51589;DHT22;37671;53.258;6.460;2023-02-01T11:13:17;6.40;99.90
51589;DHT22;37671;53.258;6.460;2023-02-01T11:15:54;6.30;99.90
51589;DHT22;37671;53.258;6.460;2023-02-01T11:18:27;6.40;99.90
51589;DHT22;37671;53.258;6.460;2023-02-01T11:20:53;6.40;99.90
51589;DHT22;37671;53.258;6.460;2023-02-01T11:23:24;6.40;99.90
51589;DHT22;37671;53.258;6.460;2023-02-01T11:25:54;6.20;99.90
51589;DHT22;37671;53.258;6.460;2023-02-01T11:28:32;6.20;99.90
51589;DHT22;37671;53.258;6.460;2023-02-01T11:31:02;6.20;99.90
51589;DHT22;37671;53.258;6.460;2023-02-01T11:33:34;6.20;99.90
51589;DHT22;37671;53.258;6.460;2023-02-01T11:36:07;6.30;99.90
51589;DHT22;37671;53.258;6.460;2023-02-01T11:38:34;5.60;99.90
51589;DHT22;37671;53.258;6.460;2023-02-01T11:41:22;5.30;99.90
51589;DHT22;37671;53.258;6.460;2023-02-01T11:44:00;5.30;99.90
51589;DHT22;37671;53.258;6.460;2023-02-01T11:46:32;5.30;99.90
51589;DHT22;37671;53.258;6.460;2023-02-01T11:49:19;5.70;99.90
51589;DHT22;37671;53.258;6.460;2023-02-01T11:54:31;5.90;99.90
51589;DHT22;37671;53.258;6.460;2023-02-01T11:57:22;4.80;99.90
51589;DHT22;37671;53.258;6.460;2023-02-01T12:07:30;5.10;99.90
51589;DHT22;37671;53.258;6.460;2023-02-01T12:10:32;5.40;99.90
51589;DHT22;37671;53.258;6.460;2023-02-01T12:18:44;6.60;99.90
51589;DHT22;37671;53.258;6.460;2023-02-01T12:21:28;6.20;99.90
51589;DHT22;37671;53.258;6.460;2023-02-01T12:24:07;6.90;99.90
51589;DHT22;37671;53.258;6.460;2023-02-01T12:43:04;7.60;99.90
51589;DHT22;37671;53.258;6.460;2023-02-01T12:45:47;7.60;99.90
51589;DHT22;37671;53.258;6.460;2023-02-01T12:51:07;7.40;99.90
51589;DHT22;37671;53.258;6.460;2023-02-01T12:53:45;7.50;99.90
51589;DHT22;37671;53.258;6.460;2023-02-01T12:56:18;7.60;99.90
51589;DHT22;37671;53.258;6.460;2023-02-01T12:58:52;7.60;99.90
51589;DHT22;37671;53.258;6.460;2023-02-01T13:01:41;8.80;99.90
51589;DHT22;37671;53.258;6.460;2023-02-01T13:04:20;8.90;99.90
51589;DHT22;37671;53.258;6.460;2023-02-01T13:06:47;7.70;99.90
51589;DHT22;37671;53.258;6.460;2023-02-01T13:11:49;7.70;99.90
51589;DHT22;37671;53.258;6.460;2023-02-01T13:14:44;8.50;99.90
51589;DHT22;37671;53.258;6.460;2023-02-01T13:17:22;7.70;99.90
51589;DHT22;37671;53.258;6.460;2023-02-01T13:22:33;7.80;99.90
51589;DHT22;37671;53.258;6.460;2023-02-01T13:25:31;7.90;99.90
51589;DHT22;37671;53.258;6.460;2023-02-01T13:28:02;7.90;99.90
51589;DHT22;37671;53.258;6.460;2023-02-01T13:41:55;7.70;99.90
51589;DHT22;37671;53.258;6.460;2023-02-01T13:44:33;9.10;99.90
51589;DHT22;37671;53.258;6.460;2023-02-01T13:47:01;7.80;99.90
51589;DHT22;37671;53.258;6.460;2023-02-01T13:49:31;7.70;99.90
51589;DHT22;37671;53.258;6.460;2023-02-01T13:51:59;8.40;99.90
51589;DHT22;37671;53.258;6.460;2023-02-01T13:54:33;7.70;99.90
51589;DHT22;37671;53.258;6.460;2023-02-01T13:57:02;7.60;99.90
51589;DHT22;37671;53.258;6.460;2023-02-01T14:05:10;7.60;99.90
51589;DHT22;37671;53.258;6.460;2023-02-01T14:07:36;7.50;99.90
51589;DHT22;37671;53.258;6.460;2023-02-01T14:10:59;7.50;99.90
51589;DHT22;37671;53.258;6.460;2023-02-01T14:24:01;7.50;99.90
51589;DHT22;37671;53.258;6.460;2023-02-01T14:32:00;7.40;99.90
51589;DHT22;37671;53.258;6.460;2023-02-01T14:37:11;7.40;99.90
51589;DHT22;37671;53.258;6.460;2023-02-01T14:42:50;7.40;99.90
51589;DHT22;37671;53.258;6.460;2023-02-01T14:47:50;7.40;99.90
51589;DHT22;37671;53.258;6.460;2023-02-01T15:01:21;7.00;99.90
51589;DHT22;37671;53.258;6.460;2023-02-01T15:04:12;7.00;99.90
51589;DHT22;37671;53.258;6.460;2023-02-01T15:14:45;7.10;99.90
51589;DHT22;37671;53.258;6.460;2023-02-01T15:17:23;7.20;99.90
51589;DHT22;37671;53.258;6.460;2023-02-01T15:19:57;7.20;99.90
51589;DHT22;37671;53.258;6.460;2023-02-01T15:22:23;7.20;99.90
51589;DHT22;37671;53.258;6.460;2023-02-01T15:24:54;7.30;99.90
51589;DHT22;37671;53.258;6.460;2023-02-01T15:27:20;7.30;99.90
51589;DHT22;37671;53.258;6.460;2023-02-01T15:29:46;7.20;99.90
51589;DHT22;37671;53.258;6.460;2023-02-01T15:32:38;7.50;99.90
51589;DHT22;37671;53.258;6.460;2023-02-01T15:35:05;7.20;99.90
51589;DHT22;37671;53.258;6.460;2023-02-01T15:37:31;7.20;99.90
51589;DHT22;37671;53.258;6.460;2023-02-01T15:42:54;7.00;99.90
51589;DHT22;37671;53.258;6.460;2023-02-01T15:45:25;7.00;99.90
51589;DHT22;37671;53.258;6.460;2023-02-01T15:47:53;7.90;99.90
51589;DHT22;37671;53.258;6.460;2023-02-01T15:50:20;6.90;99.90
51589;DHT22;37671;53.258;6.460;2023-02-01T15:52:48;6.90;99.90
51589;DHT22;37671;53.258;6.460;2023-02-01T15:55:25;7.30;99.90
51589;DHT22;37671;53.258;6.460;2023-02-01T15:57:55;6.70;99.90
51589;DHT22;37671;53.258;6.460;2023-02-01T16:00:27;6.60;99.90
51589;DHT22;37671;53.258;6.460;2023-02-01T16:02:59;6.60;99.90
51589;DHT22;37671;53.258;6.460;2023-02-01T16:08:16;6.60;99.90
51589;DHT22;37671;53.258;6.460;2023-02-01T16:10:48;6.50;99.90
51589;DHT22;37671;53.258;6.460;2023-02-01T16:13:16;6.50;99.90
51589;DHT22;37671;53.258;6.460;2023-02-01T16:15:43;6.40;99.90
51589;DHT22;37671;53.258;6.460;2023-02-01T16:18:09;6.40;99.90
51589;DHT22;37671;53.258;6.460;2023-02-01T16:20:37;6.40;99.90
51589;DHT22;37671;53.258;6.460;2023-02-01T16:23:03;6.30;99.90
51589;DHT22;37671;53.258;6.460;2023-02-01T16:25:29;6.30;99.90
51589;DHT22;37671;53.258;6.460;2023-02-01T16:27:55;6.40;99.90
51589;DHT22;37671;53.258;6.460;2023-02-01T16:30:20;7.10;99.90
51589;DHT22;37671;53.258;6.460;2023-02-01T16:32:57;6.40;99.90
51589;DHT22;37671;53.258;6.460;2023-02-01T16:35:32;6.30;99.90
51589;DHT22;37671;53.258;6.460;2023-02-01T16:38:02;6.30;99.90
51589;DHT22;37671;53.258;6.460;2023-02-01T16:40:28;6.30;99.90
51589;DHT22;37671;53.258;6.460;2023-02-01T16:42:54;6.20;99.90
51589;DHT22;37671;53.258;6.460;2023-02-01T16:45:22;6.10;99.90
51589;DHT22;37671;53.258;6.460;2023-02-01T16:47:54;6.10;99.90
51589;DHT22;37671;53.258;6.460;2023-02-01T16:50:22;6.10;99.90
51589;DHT22;37671;53.258;6.460;2023-02-01T16:52:48;6.10;99.90
51589;DHT22;37671;53.258;6.460;2023-02-01T16:55:19;6.00;99.90
51589;DHT22;37671;53.258;6.460;2023-02-01T16:57:47;6.10;99.90
51589;DHT22;37671;53.258;6.460;2023-02-01T17:00:13;6.00;99.90
51589;DHT22;37671;53.258;6.460;2023-02-01T17:02:41;6.00;99.90
51589;DHT22;37671;53.258;6.460;2023-02-01T17:05:10;5.90;99.90
51589;DHT22;37671;53.258;6.460;2023-02-01T17:07:37;6.00;99.90
51589;DHT22;37671;53.258;6.460;2023-02-01T17:10:04;6.00;99.90
51589;DHT22;37671;53.258;6.460;2023-02-01T17:12:32;5.90;99.90
51589;DHT22;37671;53.258;6.460;2023-02-01T17:15:01;5.90;99.90
51589;DHT22;37671;53.258;6.460;2023-02-01T17:17:33;6.10;99.90
51589;DHT22;37671;53.258;6.460;2023-02-01T17:20:00;6.00;99.90
51589;DHT22;37671;53.258;6.460;2023-02-01T17:22:26;6.00;99.90
51589;DHT22;37671;53.258;6.460;2023-02-01T17:24:52;6.00;99.90
51589;DHT22;37671;53.258;6.460;2023-02-01T17:27:18;6.30;99.90
51589;DHT22;37671;53.258;6.460;2023-02-01T17:29:44;5.90;99.90
51589;DHT22;37671;53.258;6.460;2023-02-01T17:32:22;5.90;99.90
51589;DHT22;37671;53.258;6.460;2023-02-01T17:34:48;5.90;99.90
51589;DHT22;37671;53.258;6.460;2023-02-01T17:39:46;5.90;99.90
51589;DHT22;37671;53.258;6.460;2023-02-01T17:42:22;5.90;99.90
51589;DHT22;37671;53.258;6.460;2023-02-01T17:44:51;5.90;99.90
51589;DHT22;37671;53.258;6.460;2023-02-01T17:47:20;6.00;99.90
51589;DHT22;37671;53.258;6.460;2023-02-01T17:49:45;6.00;99.90
51589;DHT22;37671;53.258;6.460;2023-02-01T17:52:16;6.00;99.90
51589;DHT22;37671;53.258;6.460;2023-02-01T17:54:43;6.00;99.90
51589;DHT22;37671;53.258;6.460;2023-02-01T17:57:13;6.00;99.90
51589;DHT22;37671;53.258;6.460;2023-02-01T17:59:39;6.50;99.90
51589;DHT22;37671;53.258;6.460;2023-02-01T18:04:44;5.80;99.90
51589;DHT22;37671;53.258;6.460;2023-02-01T18:07:10;5.90;99.90
51589;DHT22;37671;53.258;6.460;2023-02-01T18:09:35;5.90;99.90
51589;DHT22;37671;53.258;6.460;2023-02-01T18:12:03;5.90;99.90
51589;DHT22;37671;53.258;6.460;2023-02-01T18:14:29;6.00;99.90
51589;DHT22;37671;53.258;6.460;2023-02-01T18:16:54;6.00;99.90
51589;DHT22;37671;53.258;6.460;2023-02-01T18:19:20;6.30;99.90
51589;DHT22;37671;53.258;6.460;2023-02-01T18:21:46;6.00;99.90
51589;DHT22;37671;53.258;6.460;2023-02-01T18:24:12;6.00;99.90
51589;DHT22;37671;53.258;6.460;2023-02-01T18:26:39;6.00;99.90
51589;DHT22;37671;53.258;6.460;2023-02-01T18:29:04;7.10;99.90
51589;DHT22;37671;53.258;6.460;2023-02-01T18:31:31;6.10;99.90
51589;DHT22;37671;53.258;6.460;2023-02-01T18:33:58;6.00;99.90
51589;DHT22;37671;53.258;6.460;2023-02-01T18:36:25;6.10;99.90
51589;DHT22;37671;53.258;6.460;2023-02-01T18:38:52;6.00;99.90